createdAt,value
2023-01-29T00:01:22.455Z,16.60
2023-01-29T00:03:24.235Z,17.88
2023-01-29T00:05:28.154Z,19.00
2023-01-29T00:07:30.555Z,22.65
2023-01-29T00:09:32.770Z,12.95
2023-01-29T00:11:35.555Z,13.02
2023-01-29T00:13:37.247Z,15.70
2023-01-29T00:15:41.688Z,22.92
2023-01-29T00:17:43.497Z,21.50
2023-01-29T00:19:45.255Z,17.75
2023-01-29T00:21:47.083Z,20.50
2023-01-29T00:23:49.827Z,17.13
2023-01-29T00:25:51.665Z,18.98
2023-01-29T00:27:53.418Z,22.60
2023-01-29T00:30:05.903Z,20.38
2023-01-29T00:32:07.789Z,23.90
2023-01-29T00:34:09.768Z,19.92
2023-01-29T00:36:14.098Z,20.58
2023-01-29T00:38:15.833Z,20.77
2023-01-29T00:40:17.947Z,21.27
2023-01-29T00:42:29.234Z,24.75
2023-01-29T00:44:40.604Z,20.65
2023-01-29T00:46:42.767Z,23.90
2023-01-29T00:48:44.510Z,19.27
2023-01-29T00:50:46.875Z,26.80
2023-01-29T00:52:49.771Z,19.42
2023-01-29T00:54:53.339Z,24.65
2023-01-29T00:56:55.136Z,17.70
2023-01-29T00:58:57.229Z,23.75
2023-01-29T01:01:01.007Z,22.38
2023-01-29T01:03:05.856Z,26.50
2023-01-29T01:05:16.799Z,20.80
2023-01-29T01:09:30.063Z,18.90
2023-01-29T01:11:33.936Z,27.92
2023-01-29T01:13:35.679Z,21.48
2023-01-29T01:15:39.981Z,22.80
2023-01-29T01:17:41.806Z,24.67
2023-01-29T01:19:43.483Z,26.35
2023-01-29T01:21:48.445Z,21.88
2023-01-29T01:23:52.158Z,25.70
2023-01-29T01:25:56.416Z,21.77
2023-01-29T01:30:00.178Z,19.33
2023-01-29T01:32:02.116Z,28.08
2023-01-29T01:34:03.900Z,26.25
2023-01-29T01:36:09.905Z,23.98
2023-01-29T01:38:12.059Z,22.00
2023-01-29T01:40:18.680Z,23.67
2023-01-29T01:42:20.635Z,26.30
2023-01-29T01:44:41.698Z,21.20
2023-01-29T01:46:43.384Z,22.77
2023-01-29T01:48:47.879Z,25.63
2023-01-29T01:50:53.302Z,26.58
2023-01-29T01:52:59.996Z,25.50
2023-01-29T01:55:02.730Z,23.08
2023-01-29T01:57:11.863Z,23.88
2023-01-29T01:59:18.354Z,25.55
2023-01-29T02:01:29.202Z,25.63
2023-01-29T02:05:52.200Z,25.70
2023-01-29T02:08:04.266Z,20.02
2023-01-29T02:10:14.072Z,21.70
2023-01-29T02:12:17.169Z,25.65
2023-01-29T02:14:19.330Z,22.88
2023-01-29T02:16:22.106Z,24.70
2023-01-29T02:18:23.986Z,23.40
2023-01-29T02:20:28.933Z,21.30
2023-01-29T02:22:55.411Z,21.45
2023-01-29T02:25:16.561Z,23.25
2023-01-29T02:27:28.763Z,26.02
2023-01-29T02:29:48.255Z,27.98
2023-01-29T02:31:58.788Z,26.63
2023-01-29T02:34:08.358Z,23.67
2023-01-29T02:36:21.200Z,25.40
2023-01-29T02:38:42.559Z,23.15
2023-01-29T02:40:52.988Z,27.50
2023-01-29T02:43:08.699Z,23.10
2023-01-29T02:45:15.993Z,23.00
2023-01-29T02:47:25.283Z,22.08
2023-01-29T02:49:42.820Z,25.70
2023-01-29T02:51:55.771Z,23.85
2023-01-29T02:54:06.496Z,23.98
2023-01-29T02:56:15.856Z,27.42
2023-01-29T02:58:26.170Z,23.80
2023-01-29T03:00:33.773Z,23.80
2023-01-29T03:02:46.934Z,23.02
2023-01-29T03:04:55.781Z,22.52
2023-01-29T03:07:03.406Z,26.25
2023-01-29T03:09:10.473Z,19.45
2023-01-29T03:11:14.241Z,19.88
2023-01-29T03:13:20.192Z,26.02
2023-01-29T03:15:29.421Z,23.42
2023-01-29T03:17:47.223Z,23.02
2023-01-29T03:19:49.368Z,21.45
2023-01-29T03:21:59.728Z,20.92
2023-01-29T03:24:13.432Z,24.85
2023-01-29T03:26:28.388Z,21.85
2023-01-29T03:28:40.348Z,24.17
2023-01-29T03:30:58.555Z,19.58
2023-01-29T03:33:07.357Z,24.73
2023-01-29T03:35:13.063Z,22.48
2023-01-29T03:37:19.441Z,22.48
2023-01-29T03:39:21.691Z,24.27
2023-01-29T03:41:34.905Z,24.45
2023-01-29T03:43:46.286Z,21.52
2023-01-29T03:46:08.481Z,27.98
2023-01-29T03:48:15.749Z,26.40
2023-01-29T03:50:29.044Z,22.50
2023-01-29T03:52:45.473Z,27.33
2023-01-29T03:55:01.052Z,26.13
2023-01-29T03:57:16.284Z,19.30
2023-01-29T03:59:31.648Z,23.42
2023-01-29T04:01:47.536Z,21.55
2023-01-29T04:03:56.570Z,24.45
2023-01-29T04:06:11.567Z,20.17
2023-01-29T04:08:21.779Z,22.67
2023-01-29T04:10:27.638Z,22.58
2023-01-29T04:12:36.197Z,22.00
2023-01-29T04:14:39.032Z,21.98
2023-01-29T04:16:46.061Z,21.60
2023-01-29T04:18:48.940Z,20.85
2023-01-29T04:20:51.374Z,21.27
2023-01-29T04:22:53.431Z,23.50
2023-01-29T04:24:55.441Z,25.52
2023-01-29T04:27:14.215Z,19.58
2023-01-29T04:29:33.778Z,22.88
2023-01-29T04:31:49.672Z,21.05
2023-01-29T04:34:02.848Z,22.38
2023-01-29T04:36:20.807Z,22.35
2023-01-29T04:38:23.167Z,22.02
2023-01-29T04:40:40.314Z,24.17
2023-01-29T04:42:47.579Z,21.42
2023-01-29T04:44:59.533Z,25.83
2023-01-29T04:47:11.222Z,22.45
2023-01-29T04:49:17.948Z,24.00
2023-01-29T04:51:34.050Z,20.02
2023-01-29T04:53:46.347Z,22.20
2023-01-29T04:55:54.963Z,20.55
2023-01-29T04:57:59.026Z,19.60
2023-01-29T05:00:08.632Z,26.40
2023-01-29T05:02:12.375Z,22.70
2023-01-29T05:04:18.225Z,21.15
2023-01-29T05:06:21.178Z,25.17
2023-01-29T05:08:25.820Z,21.90
2023-01-29T05:10:28.161Z,25.85
2023-01-29T05:12:31.329Z,21.58
2023-01-29T05:14:34.953Z,20.88
2023-01-29T05:16:43.222Z,22.05
2023-01-29T05:18:45.221Z,21.90
2023-01-29T05:20:48.259Z,21.65
2023-01-29T05:22:50.187Z,21.90
2023-01-29T05:24:51.998Z,21.48
2023-01-29T05:27:04.017Z,21.35
2023-01-29T05:29:05.792Z,22.15
2023-01-29T05:31:09.202Z,21.17
2023-01-29T05:33:15.727Z,23.55
2023-01-29T05:35:17.428Z,20.58
2023-01-29T05:37:19.203Z,20.73
2023-01-29T05:39:21.103Z,24.00
2023-01-29T05:41:22.854Z,20.02
2023-01-29T05:43:25.415Z,21.33
2023-01-29T05:45:27.280Z,19.85
2023-01-29T05:47:29.037Z,26.65
2023-01-29T05:49:30.848Z,21.80
2023-01-29T05:51:32.728Z,25.20
2023-01-29T05:53:34.513Z,21.48
2023-01-29T05:55:36.248Z,18.40
2023-01-29T05:57:39.604Z,20.35
2023-01-29T05:59:41.369Z,17.45
2023-01-29T06:01:43.187Z,17.98
2023-01-29T06:03:45.857Z,18.90
2023-01-29T06:05:47.686Z,18.35
2023-01-29T06:07:49.371Z,17.52
2023-01-29T06:09:51.110Z,20.42
2023-01-29T06:11:52.911Z,20.58
2023-01-29T06:13:54.819Z,19.75
2023-01-29T06:15:56.547Z,21.00
2023-01-29T06:17:58.322Z,17.75
2023-01-29T06:20:00.210Z,21.80
2023-01-29T06:22:01.968Z,17.27
2023-01-29T06:24:04.088Z,17.08
2023-01-29T06:26:11.494Z,19.13
2023-01-29T06:28:13.307Z,16.25
2023-01-29T06:30:15.445Z,18.75
2023-01-29T06:32:17.398Z,18.15
2023-01-29T06:34:19.093Z,17.75
2023-01-29T06:36:20.912Z,17.80
2023-01-29T06:38:22.749Z,15.27
2023-01-29T06:40:24.455Z,19.73
2023-01-29T06:42:28.163Z,15.43
2023-01-29T06:44:29.941Z,16.73
2023-01-29T06:46:31.696Z,16.23
2023-01-29T06:48:33.413Z,14.07
2023-01-29T06:50:35.110Z,16.48
2023-01-29T06:52:36.886Z,13.27
2023-01-29T06:54:38.574Z,14.25
2023-01-29T06:56:40.394Z,15.30
2023-01-29T06:58:43.765Z,12.75
2023-01-29T07:00:45.506Z,13.98
2023-01-29T07:02:50.021Z,12.10
2023-01-29T07:04:51.733Z,13.43
2023-01-29T07:06:53.428Z,15.23
2023-01-29T07:08:55.508Z,12.95
2023-01-29T07:11:01.328Z,10.77
2023-01-29T07:13:03.052Z,14.93
2023-01-29T07:15:05.649Z,10.60
2023-01-29T07:17:07.374Z,12.05
2023-01-29T07:19:09.104Z,13.77
2023-01-29T07:21:10.821Z,13.45
2023-01-29T07:23:13.640Z,13.98
2023-01-29T07:25:15.513Z,12.25
2023-01-29T07:27:17.208Z,10.45
2023-01-29T07:29:18.983Z,12.95
2023-01-29T07:31:21.892Z,11.70
2023-01-29T07:33:23.649Z,9.80
2023-01-29T07:35:25.394Z,13.18
2023-01-29T07:37:27.238Z,10.48
2023-01-29T07:39:28.985Z,11.82
2023-01-29T07:41:30.692Z,12.82
2023-01-29T07:43:32.519Z,10.60
2023-01-29T07:45:36.576Z,12.65
2023-01-29T07:47:38.354Z,10.43
2023-01-29T07:49:40.117Z,11.73
2023-01-29T07:51:41.868Z,11.77
2023-01-29T07:53:45.097Z,12.55
2023-01-29T07:55:46.997Z,12.30
2023-01-29T07:57:54.822Z,9.93
2023-01-29T07:59:56.538Z,11.95
2023-01-29T08:01:58.330Z,14.48
2023-01-29T08:04:00.095Z,10.40
2023-01-29T08:06:04.253Z,11.48
2023-01-29T08:08:07.780Z,12.45
2023-01-29T08:10:10.523Z,9.30
2023-01-29T08:12:12.209Z,11.43
2023-01-29T08:14:13.918Z,12.02
2023-01-29T08:16:15.666Z,14.85
2023-01-29T08:18:17.504Z,15.07
2023-01-29T08:20:20.159Z,13.43
2023-01-29T08:22:22.114Z,15.27
2023-01-29T08:24:31.145Z,12.90
2023-01-29T08:26:43.207Z,11.98
2023-01-29T08:28:44.952Z,13.32
2023-01-29T08:30:46.847Z,16.05
2023-01-29T08:32:48.692Z,14.52
2023-01-29T08:34:50.394Z,14.38
2023-01-29T08:36:53.195Z,16.67
2023-01-29T08:38:54.894Z,16.02
2023-01-29T08:40:56.649Z,14.30
2023-01-29T08:43:02.059Z,18.40
2023-01-29T08:45:05.733Z,16.65
2023-01-29T08:47:07.509Z,23.75
2023-01-29T08:49:09.748Z,15.13
2023-01-29T08:51:11.511Z,19.88
2023-01-29T08:53:13.337Z,17.88
2023-01-29T08:55:15.613Z,14.85
2023-01-29T08:57:17.408Z,17.65
2023-01-29T08:59:19.315Z,19.30
2023-01-29T09:01:21.115Z,15.65
2023-01-29T09:03:22.952Z,17.00
2023-01-29T09:05:24.667Z,21.42
2023-01-29T09:07:26.397Z,19.40
2023-01-29T09:09:28.133Z,16.80
2023-01-29T09:11:29.869Z,15.23
2023-01-29T09:13:31.558Z,14.38
2023-01-29T09:15:33.333Z,16.10
2023-01-29T09:17:35.167Z,15.27
2023-01-29T09:19:36.887Z,15.63
2023-01-29T09:21:38.655Z,15.88
2023-01-29T09:23:40.363Z,16.27
2023-01-29T09:25:43.237Z,19.05
2023-01-29T09:27:45.052Z,14.30
2023-01-29T09:29:46.774Z,14.73
2023-01-29T09:31:48.696Z,15.70
2023-01-29T09:33:50.732Z,14.98
2023-01-29T09:35:52.482Z,16.17
2023-01-29T09:37:54.223Z,16.10
2023-01-29T09:39:56.002Z,14.68
2023-01-29T09:42:09.545Z,14.93
2023-01-29T09:44:21.218Z,18.10
2023-01-29T09:46:35.647Z,11.32
2023-01-29T09:48:38.099Z,15.77
2023-01-29T09:50:44.336Z,17.33
2023-01-29T09:52:52.807Z,13.73
2023-01-29T09:55:06.024Z,15.93
2023-01-29T09:57:16.323Z,15.00
2023-01-29T09:59:22.174Z,14.50
2023-01-29T10:01:37.827Z,14.13
2023-01-29T10:03:59.337Z,17.75
2023-01-29T10:06:11.081Z,18.20
2023-01-29T10:08:29.197Z,16.17
2023-01-29T10:10:47.091Z,15.93
2023-01-29T10:12:59.424Z,13.70
2023-01-29T10:15:12.766Z,14.80
2023-01-29T10:17:17.451Z,15.70
2023-01-29T10:19:29.208Z,14.60
2023-01-29T10:21:32.938Z,16.48
2023-01-29T10:23:39.040Z,13.35
2023-01-29T10:25:45.494Z,16.63
2023-01-29T10:27:51.926Z,15.70
2023-01-29T10:29:55.548Z,14.80
2023-01-29T10:32:05.277Z,18.30
2023-01-29T10:34:21.641Z,15.65
2023-01-29T10:36:32.444Z,16.27
2023-01-29T10:40:49.603Z,16.60
2023-01-29T10:43:00.889Z,13.98
2023-01-29T10:45:13.798Z,16.02
2023-01-29T10:47:29.317Z,15.63
2023-01-29T10:49:34.975Z,16.75
2023-01-29T10:51:57.363Z,14.55
2023-01-29T10:54:01.289Z,17.83
2023-01-29T10:56:22.835Z,16.42
2023-01-29T10:58:36.589Z,17.92
2023-01-29T11:00:40.440Z,20.42
2023-01-29T11:02:46.331Z,17.00
2023-01-29T11:04:50.289Z,22.98
2023-01-29T11:06:54.485Z,15.55
2023-01-29T11:09:12.118Z,15.68
2023-01-29T11:11:15.655Z,19.13
2023-01-29T11:13:18.964Z,15.70
2023-01-29T11:15:31.147Z,13.30
2023-01-29T11:17:33.631Z,17.05
2023-01-29T11:19:42.307Z,13.52
2023-01-29T11:22:01.619Z,15.30
2023-01-29T11:24:14.223Z,14.85
2023-01-29T11:26:24.144Z,17.23
2023-01-29T11:28:41.428Z,15.00
2023-01-29T11:30:45.328Z,14.50
2023-01-29T11:32:52.910Z,18.25
2023-01-29T11:35:03.152Z,13.43
2023-01-29T11:37:20.074Z,14.02
2023-01-29T11:39:24.215Z,12.88
2023-01-29T11:41:27.373Z,13.25
2023-01-29T11:43:31.914Z,16.55
2023-01-29T11:45:40.781Z,14.65
2023-01-29T11:47:43.910Z,12.02
2023-01-29T11:49:50.435Z,14.13
2023-01-29T11:51:56.804Z,14.60
2023-01-29T11:54:02.770Z,12.45
2023-01-29T11:56:17.058Z,13.82
2023-01-29T11:58:30.799Z,13.07
2023-01-29T12:00:36.459Z,11.88
2023-01-29T12:02:46.153Z,11.88
2023-01-29T12:04:51.554Z,11.63
2023-01-29T12:06:54.870Z,10.73
2023-01-29T12:09:00.455Z,9.38
2023-01-29T12:11:21.643Z,10.80
2023-01-29T12:13:28.177Z,11.50
2023-01-29T12:15:31.708Z,9.73
2023-01-29T12:17:39.853Z,9.70
2023-01-29T12:19:52.665Z,11.95
2023-01-29T12:22:03.941Z,10.27
2023-01-29T12:24:21.528Z,9.07
2023-01-29T12:26:31.972Z,39.47
2023-01-29T12:28:47.115Z,314.27
2023-01-29T12:31:08.619Z,246.63
2023-01-29T12:33:27.348Z,151.85
2023-01-29T12:35:37.251Z,175.45
2023-01-29T12:37:51.450Z,158.18
2023-01-29T12:39:53.675Z,13.63
2023-01-29T12:42:06.209Z,7.32
2023-01-29T12:44:18.865Z,6.43
2023-01-29T12:46:35.661Z,8.73
2023-01-29T12:48:43.106Z,7.30
2023-01-29T12:50:47.335Z,9.55
2023-01-29T12:52:52.191Z,7.45
2023-01-29T12:55:01.185Z,8.38
2023-01-29T12:57:08.854Z,7.85
2023-01-29T12:59:18.907Z,7.18
2023-01-29T13:01:29.679Z,9.53
2023-01-29T13:05:48.646Z,9.15
2023-01-29T13:07:57.804Z,7.72
2023-01-29T13:10:11.029Z,10.18
2023-01-29T13:12:17.135Z,7.70
2023-01-29T13:14:25.414Z,7.55
2023-01-29T13:16:33.665Z,5.22
2023-01-29T13:18:42.507Z,7.55
2023-01-29T13:20:46.572Z,7.75
2023-01-29T13:22:50.764Z,8.05
2023-01-29T13:25:03.981Z,6.68
2023-01-29T13:27:07.778Z,6.57
2023-01-29T13:29:24.866Z,8.40
2023-01-29T13:31:32.261Z,6.05
2023-01-29T13:33:34.360Z,7.40
2023-01-29T13:35:42.904Z,7.88
2023-01-29T13:37:54.590Z,9.57
2023-01-29T13:39:58.669Z,7.15
2023-01-29T13:42:03.160Z,7.00
2023-01-29T13:44:08.034Z,9.55
2023-01-29T13:46:14.686Z,8.55
2023-01-29T13:48:27.996Z,7.05
2023-01-29T13:50:41.532Z,9.07
2023-01-29T13:52:55.304Z,8.25
2023-01-29T13:55:02.565Z,6.50
2023-01-29T13:57:04.550Z,6.15
2023-01-29T13:59:07.094Z,6.68
2023-01-29T14:01:09.195Z,6.28
2023-01-29T14:03:11.989Z,5.78
2023-01-29T14:05:30.847Z,7.80
2023-01-29T14:07:45.758Z,5.63
2023-01-29T14:09:48.024Z,10.27
2023-01-29T14:11:50.448Z,6.05
2023-01-29T14:13:52.498Z,6.45
2023-01-29T14:15:57.873Z,5.43
2023-01-29T14:18:11.729Z,3.90
2023-01-29T14:20:32.351Z,4.00
2023-01-29T14:22:40.766Z,3.97
2023-01-29T14:24:43.280Z,3.38
2023-01-29T14:26:48.790Z,4.40
2023-01-29T14:28:56.588Z,4.32
2023-01-29T14:30:59.336Z,7.18
2023-01-29T14:33:03.139Z,2.75
2023-01-29T14:35:18.660Z,2.70
2023-01-29T14:37:29.092Z,3.78
2023-01-29T14:39:36.971Z,4.82
2023-01-29T14:41:38.864Z,4.22
2023-01-29T14:43:40.728Z,3.03
2023-01-29T14:45:44.139Z,3.70
2023-01-29T14:47:47.548Z,4.90
2023-01-29T14:49:54.910Z,2.47
2023-01-29T14:51:59.880Z,3.70
2023-01-29T14:54:19.109Z,2.65
2023-01-29T14:56:27.952Z,4.38
2023-01-29T14:58:49.350Z,4.18
2023-01-29T15:00:55.594Z,3.15
2023-01-29T15:03:02.032Z,2.60
2023-01-29T15:05:11.632Z,2.50
2023-01-29T15:07:23.689Z,3.28
2023-01-29T15:09:36.434Z,4.95
2023-01-29T15:11:58.494Z,2.33
2023-01-29T15:14:08.908Z,4.78
2023-01-29T15:16:21.268Z,3.17
2023-01-29T15:18:42.491Z,2.58
2023-01-29T15:20:44.644Z,1.95
2023-01-29T15:22:46.830Z,2.88
2023-01-29T15:25:05.448Z,2.60
2023-01-29T15:27:14.534Z,3.58
2023-01-29T15:29:25.968Z,2.35
2023-01-29T15:31:29.076Z,3.10
2023-01-29T15:33:32.409Z,2.75
2023-01-29T15:35:37.857Z,2.47
2023-01-29T15:37:40.233Z,3.88
2023-01-29T15:39:44.503Z,4.22
2023-01-29T15:41:47.367Z,2.45
2023-01-29T15:43:56.771Z,3.10
2023-01-29T15:46:02.440Z,3.83
2023-01-29T15:48:08.729Z,2.70
2023-01-29T15:50:13.310Z,3.92
2023-01-29T15:52:23.641Z,3.33
2023-01-29T15:54:30.455Z,5.88
2023-01-29T15:56:41.038Z,4.60
2023-01-29T15:58:43.213Z,4.68
2023-01-29T16:00:54.524Z,3.17
2023-01-29T16:02:58.150Z,2.50
2023-01-29T16:05:00.219Z,3.80
2023-01-29T16:07:03.916Z,4.47
2023-01-29T16:09:07.357Z,2.92
2023-01-29T16:11:09.949Z,3.72
2023-01-29T16:13:22.138Z,3.70
2023-01-29T16:15:34.155Z,2.20
2023-01-29T16:17:40.891Z,2.72
2023-01-29T16:19:42.716Z,1.75
2023-01-29T16:21:46.175Z,2.53
2023-01-29T16:23:52.124Z,1.67
2023-01-29T16:25:56.777Z,1.67
2023-01-29T16:27:58.940Z,3.05
2023-01-29T16:30:02.304Z,2.47
2023-01-29T16:32:06.277Z,2.10
2023-01-29T16:34:24.855Z,3.53
2023-01-29T16:36:28.059Z,3.42
2023-01-29T16:38:33.853Z,3.17
2023-01-29T16:40:38.258Z,2.75
2023-01-29T16:42:41.780Z,4.10
2023-01-29T16:44:57.407Z,2.15
2023-01-29T16:47:11.111Z,3.17
2023-01-29T16:49:25.826Z,2.13
2023-01-29T16:51:32.026Z,3.15
2023-01-29T16:53:35.894Z,1.90
2023-01-29T16:55:41.316Z,3.13
2023-01-29T16:57:47.204Z,1.85
2023-01-29T16:59:52.769Z,2.10
2023-01-29T17:01:55.948Z,2.58
2023-01-29T17:04:05.894Z,3.15
2023-01-29T17:06:20.643Z,3.23
2023-01-29T17:08:25.367Z,2.08
2023-01-29T17:10:29.307Z,2.28
2023-01-29T17:12:33.117Z,2.33
2023-01-29T17:14:38.633Z,2.42
2023-01-29T17:16:50.842Z,2.35
2023-01-29T17:18:52.848Z,4.10
2023-01-29T17:20:54.705Z,2.53
2023-01-29T17:22:56.603Z,3.15
2023-01-29T17:24:58.600Z,4.90
2023-01-29T17:27:02.379Z,4.45
2023-01-29T17:29:04.223Z,5.70
2023-01-29T17:31:07.909Z,3.65
2023-01-29T17:33:13.929Z,4.82
2023-01-29T17:35:17.362Z,3.25
2023-01-29T17:37:20.310Z,4.32
2023-01-29T17:39:24.293Z,4.38
2023-01-29T17:41:29.904Z,3.22
2023-01-29T17:43:31.743Z,3.78
2023-01-29T17:45:34.054Z,4.45
2023-01-29T17:47:35.933Z,4.00
2023-01-29T17:49:38.128Z,3.15
2023-01-29T17:51:40.014Z,4.10
2023-01-29T17:53:45.889Z,3.15
2023-01-29T17:55:49.133Z,4.88
2023-01-29T17:57:50.939Z,2.58
2023-01-29T17:59:52.751Z,1.90
2023-01-29T18:01:54.575Z,3.05
2023-01-29T18:03:56.494Z,3.25
2023-01-29T18:05:58.429Z,2.15
2023-01-29T18:08:00.405Z,3.00
2023-01-29T18:10:02.324Z,3.92
2023-01-29T18:12:04.217Z,2.55
2023-01-29T18:14:13.672Z,2.88
2023-01-29T18:16:18.445Z,5.67
2023-01-29T18:18:22.185Z,6.40
2023-01-29T18:20:26.059Z,3.38
2023-01-29T18:22:28.058Z,4.35
2023-01-29T18:24:31.436Z,4.43
2023-01-29T18:26:33.362Z,4.57
2023-01-29T18:28:35.464Z,3.90
2023-01-29T18:30:37.377Z,3.25
2023-01-29T18:32:39.643Z,4.03
2023-01-29T18:34:41.494Z,4.72
2023-01-29T18:36:47.113Z,2.40
2023-01-29T18:38:48.993Z,4.10
2023-01-29T18:40:50.908Z,4.15
2023-01-29T18:42:52.888Z,2.92
2023-01-29T18:44:54.799Z,3.72
2023-01-29T18:46:56.669Z,5.07
2023-01-29T18:48:58.575Z,3.38
2023-01-29T18:51:00.572Z,2.78
2023-01-29T18:53:04.376Z,3.97
2023-01-29T18:55:07.048Z,3.67
2023-01-29T18:57:14.940Z,5.30
2023-01-29T18:59:17.513Z,3.42
2023-01-29T19:01:19.524Z,3.67
2023-01-29T19:03:21.453Z,4.75
2023-01-29T19:05:24.668Z,4.60
2023-01-29T19:07:27.408Z,5.72
2023-01-29T19:09:29.318Z,7.15
2023-01-29T19:11:31.109Z,5.03
2023-01-29T19:13:33.115Z,5.30
2023-01-29T19:15:35.349Z,5.95
2023-01-29T19:17:41.471Z,4.97
2023-01-29T19:19:43.297Z,6.60
2023-01-29T19:21:45.113Z,4.80
2023-01-29T19:23:47.093Z,4.22
2023-01-29T19:25:49.009Z,3.78
2023-01-29T19:27:50.873Z,5.07
2023-01-29T19:29:53.450Z,5.05
2023-01-29T19:31:55.325Z,3.05
2023-01-29T19:33:57.154Z,4.13
2023-01-29T19:35:59.883Z,5.95
2023-01-29T19:38:01.730Z,5.47
2023-01-29T19:40:03.930Z,6.38
2023-01-29T19:42:05.836Z,4.93
2023-01-29T19:44:07.811Z,4.80
2023-01-29T19:46:10.596Z,5.68
2023-01-29T19:48:13.550Z,4.32
2023-01-29T19:50:15.650Z,3.42
2023-01-29T19:52:49.735Z,4.45
2023-01-29T19:54:52.597Z,3.50
2023-01-29T19:56:54.797Z,4.65
2023-01-29T19:58:57.488Z,4.53
2023-01-29T20:01:01.859Z,4.55
2023-01-29T20:03:03.890Z,5.30
2023-01-29T20:05:07.987Z,9.57
2023-01-29T20:07:09.856Z,4.82
2023-01-29T20:09:12.841Z,4.70
2023-01-29T20:11:16.899Z,6.93
2023-01-29T20:13:19.243Z,3.88
2023-01-29T20:15:22.420Z,5.35
2023-01-29T20:17:24.321Z,3.90
2023-01-29T20:19:26.337Z,5.57
2023-01-29T20:21:28.660Z,5.97
2023-01-29T20:23:37.792Z,5.43
2023-01-29T20:25:40.966Z,5.60
2023-01-29T20:27:42.875Z,5.60
2023-01-29T20:29:46.680Z,3.08
2023-01-29T20:31:48.491Z,4.40
2023-01-29T20:33:50.631Z,4.07
2023-01-29T20:35:55.022Z,6.90
2023-01-29T20:37:57.126Z,5.45
2023-01-29T20:39:58.954Z,4.90
2023-01-29T20:42:00.752Z,6.63
2023-01-29T20:44:02.530Z,6.72
2023-01-29T20:46:04.980Z,7.88
2023-01-29T20:48:08.085Z,5.03
2023-01-29T20:50:11.653Z,6.03
2023-01-29T20:52:13.452Z,5.53
2023-01-29T20:54:15.335Z,4.07
2023-01-29T20:56:17.952Z,3.72
2023-01-29T20:58:19.988Z,5.75
2023-01-29T21:00:22.051Z,4.03
2023-01-29T21:02:23.830Z,5.82
2023-01-29T21:04:25.765Z,6.18
2023-01-29T21:06:29.586Z,8.55
2023-01-29T21:08:31.529Z,12.30
2023-01-29T21:10:33.238Z,5.10
2023-01-29T21:12:35.448Z,4.18
2023-01-29T21:14:37.386Z,3.70
2023-01-29T21:16:39.163Z,7.38
2023-01-29T21:18:41.068Z,6.38
2023-01-29T21:20:42.899Z,7.07
2023-01-29T21:22:45.599Z,7.65
2023-01-29T21:24:47.563Z,8.27
2023-01-29T21:26:49.819Z,4.70
2023-01-29T21:28:51.833Z,4.45
2023-01-29T21:31:03.140Z,6.25
2023-01-29T21:33:05.958Z,7.03
2023-01-29T21:35:08.606Z,5.00
2023-01-29T21:37:10.728Z,3.53
2023-01-29T21:39:23.523Z,5.80
2023-01-29T21:41:45.597Z,4.57
2023-01-29T21:43:47.614Z,7.80
2023-01-29T21:45:56.395Z,5.82
2023-01-29T21:47:58.361Z,3.90
2023-01-29T21:50:00.283Z,5.50
2023-01-29T21:52:02.261Z,6.45
2023-01-29T21:54:04.500Z,7.30
2023-01-29T21:56:06.584Z,6.95
2023-01-29T21:58:08.316Z,5.15
2023-01-29T22:00:16.388Z,7.80
2023-01-29T22:02:18.407Z,4.97
2023-01-29T22:04:20.322Z,6.57
2023-01-29T22:06:22.089Z,8.55
2023-01-29T22:08:23.793Z,5.30
2023-01-29T22:10:25.841Z,10.65
2023-01-29T22:12:28.076Z,5.40
2023-01-29T22:14:29.853Z,6.72
2023-01-29T22:16:31.675Z,7.53
2023-01-29T22:18:33.893Z,7.50
2023-01-29T22:20:36.761Z,6.75
2023-01-29T22:22:38.473Z,7.60
2023-01-29T22:24:40.893Z,8.23
2023-01-29T22:26:42.740Z,6.70
2023-01-29T22:28:44.694Z,7.10
2023-01-29T22:30:46.473Z,7.47
2023-01-29T22:32:48.258Z,6.93
2023-01-29T22:34:50.068Z,6.20
2023-01-29T22:36:51.873Z,7.15
2023-01-29T22:38:53.657Z,5.97
2023-01-29T22:40:57.121Z,6.35
2023-01-29T22:42:58.958Z,8.57
2023-01-29T22:45:00.792Z,5.05
2023-01-29T22:47:02.516Z,6.85
2023-01-29T22:49:04.353Z,5.10
2023-01-29T22:51:16.171Z,7.55
2023-01-29T22:53:17.938Z,5.65
2023-01-29T22:55:19.873Z,9.88
2023-01-29T22:57:21.637Z,5.93
2023-01-29T22:59:23.407Z,7.03
2023-01-29T23:01:28.372Z,6.85
2023-01-29T23:03:30.134Z,6.10
2023-01-29T23:05:31.797Z,7.10
2023-01-29T23:07:33.826Z,10.07
2023-01-29T23:09:35.550Z,5.43
2023-01-29T23:11:37.347Z,5.75
2023-01-29T23:13:40.197Z,7.07
2023-01-29T23:15:42.009Z,5.88
2023-01-29T23:17:45.299Z,3.50
2023-01-29T23:19:47.087Z,5.20
2023-01-29T23:21:48.764Z,7.13
2023-01-29T23:23:52.506Z,6.43
2023-01-29T23:26:08.137Z,7.78
2023-01-29T23:28:09.808Z,5.85
2023-01-29T23:30:12.086Z,7.57
2023-01-29T23:32:17.277Z,5.40
2023-01-29T23:34:19.132Z,5.35
2023-01-29T23:36:21.129Z,6.32
2023-01-29T23:38:23.048Z,5.30
2023-01-29T23:40:24.855Z,7.70
2023-01-29T23:42:26.543Z,6.30
2023-01-29T23:44:28.307Z,5.88
2023-01-29T23:46:30.254Z,6.10
2023-01-29T23:48:32.098Z,5.63
2023-01-29T23:50:33.933Z,6.40
2023-01-29T23:52:35.662Z,5.25
2023-01-29T23:54:37.353Z,5.53
2023-01-29T23:56:39.172Z,12.15
2023-01-29T23:58:41.033Z,6.82
